Time;durP1;ratioP1;P1;durP2;ratioP2;P2;SDS_P1;SDS_P2;PMS_P1;PMS_P2;Temp;Humidity;BMP_temperature;BMP_pressure;BME280_temperature;BME280_humidity;BME280_pressure;Samples;Min_cycle;Max_cycle;Signal;HPM_P1;HPM_P2
2022/10/04 00:01:43;;;;;;;25.42;4.10;;;6.50;99.90;;;;;;5038836;28;20026;-60
2022/10/04 00:04:21;;;;;;;3.50;2.80;;;6.50;99.90;;;;;;5044342;28;20021;-62
2022/10/04 00:07:16;;;;;;;16.45;2.83;;;6.50;99.90;;;;;;5042576;28;20029;-61
2022/10/04 00:09:44;;;;;;;21.17;3.17;;;6.50;99.90;;;;;;5038842;28;20104;-61
2022/10/04 00:12:25;;;;;;;7.93;2.67;;;6.50;99.90;;;;;;5040707;28;20025;-61
2022/10/04 00:14:54;;;;;;;2.80;2.37;;;6.50;99.90;;;;;;5040999;28;20060;-62
2022/10/04 00:17:25;;;;;;;16.98;2.70;;;6.50;99.90;;;;;;5037788;28;20268;-61
2022/10/04 00:19:53;;;;;;;11.73;2.67;;;6.50;99.90;;;;;;5040824;28;20045;-62
2022/10/04 00:22:23;;;;;;;9.40;2.92;;;6.50;99.90;;;;;;5019171;28;20788;-62
2022/10/04 00:25:08;;;;;;;27.13;3.47;;;6.50;99.90;;;;;;5038757;28;20028;-62
2022/10/04 00:27:36;;;;;;;97.75;4.70;;;6.50;99.90;;;;;;5038438;28;20042;-62
2022/10/04 00:30:01;;;;;;;157.05;5.40;;;6.40;99.90;;;;;;5038866;28;20033;-62
2022/10/04 00:32:39;;;;;;;164.65;5.75;;;6.30;99.90;;;;;;5039591;28;20032;-62
2022/10/04 00:35:23;;;;;;;153.07;5.80;;;6.20;99.90;;;;;;5037152;28;20026;-62
2022/10/04 00:38:06;;;;;;;113.00;5.25;;;6.10;99.90;;;;;;5036024;28;20578;-61
2022/10/04 00:41:03;;;;;;;55.80;3.72;;;6.10;99.90;;;;;;5035996;28;20476;-61
2022/10/04 00:43:48;;;;;;;81.00;4.20;;;6.10;99.90;;;;;;5040150;28;20021;-61
2022/10/04 00:46:23;;;;;;;99.88;4.40;;;6.10;99.90;;;;;;5034900;28;20061;-62
2022/10/04 00:48:53;;;;;;;36.75;2.90;;;6.10;99.90;;;;;;5039538;28;20106;-61
2022/10/04 00:52:01;;;;;;;56.90;3.85;;;6.10;99.90;;;;;;5038492;28;20029;-62
2022/10/04 00:54:27;;;;;;;85.25;4.20;;;6.10;99.90;;;;;;5036304;28;20124;-61
2022/10/04 00:57:06;;;;;;;89.32;4.47;;;6.20;99.90;;;;;;5036743;28;20029;-61
2022/10/04 00:59:48;;;;;;;30.08;3.20;;;6.20;99.90;;;;;;5039367;28;20049;-61
2022/10/04 01:02:19;;;;;;;60.05;3.15;;;6.30;99.90;;;;;;5039843;28;20076;-61
2022/10/04 01:04:47;;;;;;;67.05;4.35;;;6.30;99.90;;;;;;5039679;28;20531;-61
2022/10/04 01:07:21;;;;;;;29.52;2.58;;;6.30;99.90;;;;;;5041247;28;20022;-62
2022/10/04 01:09:54;;;;;;;94.07;3.97;;;6.30;99.90;;;;;;5040385;28;20388;-60
2022/10/04 01:12:40;;;;;;;71.55;3.33;;;6.30;99.90;;;;;;5038585;28;20037;-61
2022/10/04 01:15:21;;;;;;;58.38;3.28;;;6.30;99.90;;;;;;5040651;28;20025;-62
2022/10/04 01:18:17;;;;;;;85.53;4.75;;;6.30;99.90;;;;;;5036570;28;20026;-61
2022/10/04 01:21:04;;;;;;;52.92;3.65;;;6.30;99.90;;;;;;5038749;28;20117;-62
2022/10/04 01:23:40;;;;;;;60.50;4.10;;;6.30;99.90;;;;;;5038939;28;20029;-62
2022/10/04 01:26:28;;;;;;;57.78;3.03;;;6.30;99.90;;;;;;5039171;28;20053;-61
2022/10/04 01:29:13;;;;;;;46.53;3.58;;;6.40;99.90;;;;;;5037105;28;20130;-62
2022/10/04 01:31:42;;;;;;;45.05;3.38;;;6.40;99.90;;;;;;5044808;28;20123;-61
2022/10/04 01:34:10;;;;;;;155.13;6.05;;;6.40;99.90;;;;;;5037101;28;20393;-61
2022/10/04 01:36:36;;;;;;;31.33;2.90;;;6.40;99.90;;;;;;5034276;28;20029;-61
2022/10/04 01:39:03;;;;;;;24.27;2.67;;;6.50;99.90;;;;;;5038650;28;20032;-62
2022/10/04 01:41:39;;;;;;;54.05;3.42;;;6.50;99.90;;;;;;5038529;28;20120;-61
2022/10/04 01:44:08;;;;;;;22.23;2.90;;;6.50;99.90;;;;;;5039273;28;20572;-61
2022/10/04 01:46:36;;;;;;;53.13;3.92;;;6.60;99.90;;;;;;5038778;28;20029;-61
2022/10/04 01:49:08;;;;;;;56.13;3.70;;;6.60;99.90;;;;;;5036299;28;20021;-61
2022/10/04 01:51:41;;;;;;;83.00;4.88;;;6.60;99.90;;;;;;5037180;28;20148;-62
2022/10/04 01:54:16;;;;;;;202.43;7.38;;;6.60;99.90;;;;;;5040164;28;20076;-62
2022/10/04 01:57:22;;;;;;;135.07;5.97;;;6.70;99.90;;;;;;5040241;28;20363;-63
2022/10/04 02:00:00;;;;;;;115.40;5.35;;;6.70;99.90;;;;;;5039836;28;20025;-62
2022/10/04 02:02:44;;;;;;;156.13;6.47;;;6.70;99.90;;;;;;5036577;28;20029;-62
2022/10/04 02:05:12;;;;;;;202.57;7.00;;;6.70;99.90;;;;;;5036674;28;20033;-62
2022/10/04 02:07:40;;;;;;;128.07;5.30;;;6.60;99.90;;;;;;5033950;28;20061;-61
2022/10/04 02:10:11;;;;;;;137.43;5.55;;;6.70;99.90;;;;;;5037535;28;20025;-61
2022/10/04 02:12:42;;;;;;;;;;;6.60;99.90;;;;;;5038489;28;20026;-62
2022/10/04 02:15:10;;;;;;;115.50;5.57;;;6.60;99.90;;;;;;5035906;28;19940;-62
2022/10/04 02:17:41;;;;;;;133.30;5.35;;;6.60;99.90;;;;;;5035484;28;20047;-62
2022/10/04 02:20:20;;;;;;;126.43;4.70;;;6.60;99.90;;;;;;5035326;28;20029;-62
2022/10/04 02:22:50;;;;;;;147.00;5.75;;;6.60;99.90;;;;;;5036154;28;20025;-62
2022/10/04 02:25:18;;;;;;;172.10;6.28;;;6.60;99.90;;;;;;5037915;28;20029;-62
2022/10/04 02:27:44;;;;;;;172.95;6.70;;;6.60;99.90;;;;;;5037484;28;20009;-61
2022/10/04 02:30:12;;;;;;;79.20;4.25;;;6.60;99.90;;;;;;5036738;28;20048;-62
2022/10/04 02:33:01;;;;;;;42.47;3.25;;;6.50;99.90;;;;;;5035953;28;20022;-61
2022/10/04 02:35:42;;;;;;;58.92;3.30;;;6.50;99.90;;;;;;5040521;28;20070;-62
2022/10/04 02:38:16;;;;;;;139.80;5.53;;;6.50;99.90;;;;;;5032097;28;20675;-61
2022/10/04 02:41:02;;;;;;;71.63;4.43;;;6.50;99.90;;;;;;5032803;28;20032;-62
2022/10/04 02:43:41;;;;;;;58.35;3.58;;;6.60;99.90;;;;;;5036636;28;20482;-62
2022/10/04 02:46:27;;;;;;;35.72;3.30;;;6.60;99.90;;;;;;5036551;28;20014;-61
2022/10/04 02:49:03;;;;;;;79.97;4.13;;;6.60;99.90;;;;;;5035172;28;20025;-61
2022/10/04 02:51:42;;;;;;;53.10;3.75;;;6.60;99.90;;;;;;5036806;28;20021;-63
2022/10/04 02:54:32;;;;;;;87.72;5.03;;;6.60;99.90;;;;;;5034905;28;20029;-61
2022/10/04 02:56:59;;;;;;;57.67;3.72;;;6.60;99.90;;;;;;5035569;28;20372;-61
2022/10/04 02:59:26;;;;;;;33.55;3.60;;;6.60;99.90;;;;;;5039719;28;20033;-62
2022/10/04 03:01:55;;;;;;;69.82;3.85;;;6.60;99.90;;;;;;5033604;28;20037;-62
2022/10/04 03:04:24;;;;;;;30.98;2.92;;;6.60;99.90;;;;;;5037529;28;20148;-61
2022/10/04 03:06:51;;;;;;;37.47;3.22;;;6.60;99.90;;;;;;5038047;28;20026;-61
2022/10/04 03:09:20;;;;;;;57.38;3.80;;;6.60;99.90;;;;;;5030736;28;20037;-61
2022/10/04 03:11:48;;;;;;;66.25;3.45;;;6.70;99.90;;;;;;5035250;28;20560;-61
2022/10/04 03:14:19;;;;;;;57.80;3.55;;;6.70;99.90;;;;;;5038788;28;20028;-62
2022/10/04 03:16:48;;;;;;;62.92;3.72;;;6.60;99.90;;;;;;5035703;28;20255;-62
2022/10/04 03:19:16;;;;;;;83.40;4.10;;;6.60;99.90;;;;;;5035296;28;20473;-61
2022/10/04 03:21:44;;;;;;;43.58;3.65;;;6.60;99.90;;;;;;5036226;28;20044;-61
2022/10/04 03:24:21;;;;;;;52.70;3.67;;;6.60;99.90;;;;;;5038997;28;20056;-61
2022/10/04 03:26:51;;;;;;;41.78;3.65;;;6.60;99.90;;;;;;5036436;28;20044;-62
2022/10/04 03:29:20;;;;;;;41.63;3.53;;;6.60;99.90;;;;;;5033864;28;20120;-61
2022/10/04 03:31:49;;;;;;;35.10;3.42;;;6.60;99.90;;;;;;5040158;28;20038;-62
2022/10/04 03:34:23;;;;;;;41.30;3.53;;;6.60;99.90;;;;;;5038733;28;20025;-61
2022/10/04 03:36:52;;;;;;;61.92;3.90;;;6.60;99.90;;;;;;5041528;28;20371;-61
2022/10/04 03:39:32;;;;;;;49.45;3.63;;;6.50;99.90;;;;;;5040535;28;20030;-61
2022/10/04 03:42:19;;;;;;;51.42;3.88;;;6.50;99.90;;;;;;5039191;28;20021;-62
2022/10/04 03:44:46;;;;;;;35.30;2.88;;;6.50;99.90;;;;;;5039213;28;20040;-62
2022/10/04 03:47:16;;;;;;;52.95;3.72;;;6.50;99.90;;;;;;5038307;28;20518;-62
2022/10/04 03:49:44;;;;;;;34.22;3.10;;;6.50;99.90;;;;;;5033730;28;20071;-62
2022/10/04 03:52:25;;;;;;;31.08;3.05;;;6.60;99.90;;;;;;5021706;28;20037;-62
2022/10/04 03:54:55;;;;;;;23.48;3.33;;;6.60;99.90;;;;;;5039062;28;20026;-62
2022/10/04 03:57:22;;;;;;;40.47;3.20;;;6.50;99.90;;;;;;5037924;28;20059;-62
2022/10/04 03:59:48;;;;;;;59.72;4.07;;;6.60;99.90;;;;;;5040343;28;20029;-61
2022/10/04 04:02:19;;;;;;;36.58;3.53;;;6.60;99.90;;;;;;5040824;28;20029;-62
2022/10/04 04:04:59;;;;;;;57.28;4.47;;;6.60;99.90;;;;;;5041140;28;20033;-62
2022/10/04 04:07:37;;;;;;;53.40;4.07;;;6.60;99.90;;;;;;5039886;28;20357;-61
2022/10/04 04:10:29;;;;;;;94.45;5.85;;;6.60;99.90;;;;;;5045280;28;20033;-61
2022/10/04 04:13:03;;;;;;;60.88;4.15;;;6.50;99.90;;;;;;5043609;28;20424;-63
2022/10/04 04:15:32;;;;;;;76.65;4.18;;;6.50;99.90;;;;;;5046799;28;20044;-62
2022/10/04 04:18:16;;;;;;;92.25;5.60;;;6.50;99.90;;;;;;5041174;28;20431;-62
2022/10/04 04:20:43;;;;;;;39.67;3.45;;;6.50;99.90;;;;;;5037922;28;20481;-61
2022/10/04 04:23:11;;;;;;;51.17;4.25;;;6.50;99.90;;;;;;5038930;28;20021;-62
2022/10/04 04:25:40;;;;;;;30.00;3.70;;;6.40;99.90;;;;;;5038738;28;20105;-61
2022/10/04 04:28:27;;;;;;;6.78;3.17;;;6.50;99.90;;;;;;5045052;28;20029;-61
2022/10/04 04:31:05;;;;;;;18.33;3.05;;;6.40;99.90;;;;;;5040549;28;20063;-62
2022/10/04 04:33:43;;;;;;;43.65;4.40;;;6.40;99.90;;;;;;5039174;28;20150;-62
2022/10/04 04:36:11;;;;;;;24.23;3.42;;;6.40;99.90;;;;;;5036200;28;20033;-62
2022/10/04 04:39:33;;;;;;;17.52;3.00;;;6.40;99.90;;;;;;5038611;28;20024;-62
2022/10/04 04:41:30;;;;;;;20.23;3.38;;;6.40;99.90;;;;;;5041124;28;20018;-62
2022/10/04 04:43:56;;;;;;;15.85;3.10;;;6.40;99.90;;;;;;5044781;28;20434;-61
2022/10/04 04:46:22;;;;;;;10.57;3.28;;;6.50;99.90;;;;;;5040532;28;20025;-62
2022/10/04 04:48:59;;;;;;;82.15;5.00;;;6.50;99.90;;;;;;5044228;28;20029;-61
2022/10/04 04:51:25;;;;;;;57.03;5.40;;;6.50;99.90;;;;;;5040325;28;20049;-61
2022/10/04 04:53:53;;;;;;;83.63;4.97;;;6.50;99.90;;;;;;5041578;28;20063;-61
2022/10/04 04:56:22;;;;;;;48.67;4.40;;;6.60;99.90;;;;;;5039352;28;20021;-61
2022/10/04 04:58:50;;;;;;;45.47;4.63;;;6.60;99.90;;;;;;5038049;28;20079;-61
2022/10/04 05:01:45;;;;;;;54.38;5.18;;;6.50;99.90;;;;;;5036287;28;20025;-61
2022/10/04 05:04:11;;;;;;;26.75;3.92;;;6.50;99.90;;;;;;5021650;28;20025;-60
2022/10/04 05:06:45;;;;;;;40.38;4.68;;;6.50;99.90;;;;;;5036665;28;20021;-62
2022/10/04 05:09:24;;;;;;;53.50;4.95;;;6.50;99.90;;;;;;5037012;28;20029;-62
2022/10/04 05:11:52;;;;;;;21.67;3.80;;;6.50;99.90;;;;;;5035927;28;20106;-62
2022/10/04 05:14:18;;;;;;;17.05;4.20;;;6.50;99.90;;;;;;5041671;28;20566;-62
2022/10/04 05:16:54;;;;;;;6.93;2.72;;;6.60;99.90;;;;;;5038283;28;20030;-61
2022/10/04 05:19:30;;;;;;;2.97;2.55;;;6.60;99.90;;;;;;5034112;28;20513;-62
2022/10/04 05:21:59;;;;;;;3.78;2.30;;;6.50;99.90;;;;;;5034029;28;20822;-62
2022/10/04 05:24:29;;;;;;;2.55;2.35;;;6.60;99.90;;;;;;5033020;28;20033;-62
2022/10/04 05:26:59;;;;;;;4.43;2.40;;;6.60;99.90;;;;;;5033046;28;20033;-60
2022/10/04 05:29:28;;;;;;;4.30;2.47;;;6.60;99.90;;;;;;5034428;28;20111;-61
2022/10/04 05:32:09;;;;;;;2.97;2.35;;;6.60;99.90;;;;;;5042129;28;20052;-59
2022/10/04 05:34:40;;;;;;;5.90;2.97;;;6.70;99.90;;;;;;5042558;28;20040;-60
2022/10/04 05:37:28;;;;;;;7.57;3.05;;;6.70;99.90;;;;;;5034941;28;20255;-59
2022/10/04 05:40:09;;;;;;;5.32;3.10;;;6.70;99.90;;;;;;5040697;28;20036;-59
2022/10/04 05:42:45;;;;;;;10.43;3.25;;;6.70;99.90;;;;;;5018203;28;20360;-60
2022/10/04 05:45:17;;;;;;;5.70;2.88;;;6.70;99.90;;;;;;5015491;28;20591;-59
2022/10/04 05:47:44;;;;;;;3.95;2.88;;;6.70;99.90;;;;;;5017421;28;20114;-60
2022/10/04 05:50:16;;;;;;;5.85;3.33;;;6.70;99.90;;;;;;5018412;28;20108;-60
2022/10/04 05:52:42;;;;;;;4.25;2.78;;;6.70;99.90;;;;;;5020289;28;20521;-61
2022/10/04 05:55:11;;;;;;;8.00;4.28;;;6.70;99.90;;;;;;5015288;28;20032;-60
2022/10/04 05:57:52;;;;;;;4.20;3.47;;;6.80;99.90;;;;;;5012932;28;20117;-60
2022/10/04 06:00:33;;;;;;;12.77;4.10;;;6.80;99.90;;;;;;5015793;28;20922;-60
2022/10/04 06:03:23;;;;;;;26.25;4.28;;;6.80;99.90;;;;;;5018316;28;20036;-60
2022/10/04 06:06:21;;;;;;;21.98;4.75;;;6.80;99.90;;;;;;5017729;28;20037;-59
2022/10/04 06:09:02;;;;;;;46.67;5.35;;;6.80;99.90;;;;;;5017438;28;20036;-59
2022/10/04 06:11:40;;;;;;;28.02;6.43;;;6.90;99.90;;;;;;5016282;28;20490;-60
2022/10/04 06:14:17;;;;;;;13.18;5.57;;;6.80;99.90;;;;;;5014094;28;20083;-60
2022/10/04 06:17:10;;;;;;;11.77;4.50;;;6.90;99.90;;;;;;5016391;28;20398;-60
2022/10/04 06:20:06;;;;;;;8.75;4.70;;;6.90;99.90;;;;;;5019061;28;20041;-60
2022/10/04 06:22:32;;;;;;;7.72;4.93;;;7.00;99.90;;;;;;5017001;28;20046;-60
2022/10/04 06:25:05;;;;;;;4.13;3.53;;;7.00;99.90;;;;;;5016214;28;20486;-60
2022/10/04 06:27:34;;;;;;;4.75;3.25;;;7.10;99.90;;;;;;5017222;28;20038;-61
2022/10/04 06:30:03;;;;;;;5.93;3.85;;;7.10;99.90;;;;;;5018594;28;20524;-60
2022/10/04 06:32:40;;;;;;;4.07;3.65;;;7.20;99.90;;;;;;5017375;28;20556;-61
2022/10/04 06:35:32;;;;;;;5.95;2.92;;;7.20;99.90;;;;;;5015545;28;20179;-59
2022/10/04 06:38:20;;;;;;;7.15;3.67;;;7.20;99.90;;;;;;5017197;28;20531;-60
2022/10/04 06:41:06;;;;;;;4.70;3.97;;;7.20;99.90;;;;;;5017592;28;20216;-59
2022/10/04 06:43:55;;;;;;;5.00;4.50;;;7.20;99.90;;;;;;5017806;28;20037;-60
2022/10/04 06:46:26;;;;;;;7.75;3.83;;;7.20;99.90;;;;;;5018610;28;20037;-61
2022/10/04 06:49:25;;;;;;;6.13;3.95;;;7.30;99.90;;;;;;5021446;28;20099;-59
2022/10/04 06:52:03;;;;;;;5.47;4.10;;;7.30;99.90;;;;;;5021973;28;20088;-60
2022/10/04 06:54:30;;;;;;;8.52;4.68;;;7.40;99.90;;;;;;5034740;28;20026;-60
2022/10/04 06:57:24;;;;;;;4.30;3.90;;;7.40;99.90;;;;;;5034882;28;20030;-60
2022/10/04 07:00:15;;;;;;;4.80;4.35;;;7.50;99.90;;;;;;5040293;28;20037;-59
2022/10/04 07:02:50;;;;;;;;;;;7.60;99.90;;;;;;5033052;28;20041;-59
2022/10/04 07:05:29;;;;;;;4.47;3.45;;;7.70;99.90;;;;;;5037444;28;20299;-60
2022/10/04 07:08:10;;;;;;;5.15;3.75;;;7.80;99.90;;;;;;5042154;28;20064;-60
2022/10/04 07:10:52;;;;;;;6.40;3.67;;;7.90;99.90;;;;;;5041540;28;20034;-60
2022/10/04 07:13:20;;;;;;;4.28;3.25;;;8.00;99.90;;;;;;5043993;28;20048;-60
2022/10/04 07:16:04;;;;;;;3.83;3.53;;;8.00;99.90;;;;;;5044741;28;20033;-60
2022/10/04 07:18:40;;;;;;;5.10;3.72;;;8.00;99.90;;;;;;5037802;28;20095;-60
2022/10/04 07:21:15;;;;;;;4.85;3.15;;;8.10;99.90;;;;;;5043307;28;20055;-61
2022/10/04 07:23:55;;;;;;;8.13;3.53;;;8.10;99.90;;;;;;5041262;28;20059;-60
2022/10/04 07:26:35;;;;;;;4.10;3.70;;;8.10;99.90;;;;;;5041383;28;20040;-61
2022/10/04 07:29:21;;;;;;;3.63;3.33;;;8.30;99.90;;;;;;5041177;28;20044;-60
2022/10/04 07:32:07;;;;;;;3.70;3.40;;;8.40;99.90;;;;;;5040359;28;20076;-60
2022/10/04 07:34:49;;;;;;;4.25;3.15;;;8.50;99.90;;;;;;5039743;28;20025;-60
2022/10/04 07:37:15;;;;;;;5.50;4.28;;;8.60;99.90;;;;;;5040922;28;20551;-61
2022/10/04 07:40:29;;;;;;;7.40;4.63;;;8.80;99.90;;;;;;5039056;28;20064;-60
2022/10/04 07:43:19;;;;;;;4.13;3.47;;;8.80;99.90;;;;;;5018795;28;20757;-60
2022/10/04 07:45:47;;;;;;;5.60;4.82;;;8.90;99.90;;;;;;5040139;28;20048;-60
2022/10/04 07:48:23;;;;;;;7.20;5.13;;;8.90;99.90;;;;;;5041232;28;20075;-60
2022/10/04 07:50:58;;;;;;;6.78;5.10;;;9.00;99.90;;;;;;5039959;28;20037;-60
2022/10/04 07:53:33;;;;;;;4.55;4.15;;;9.10;99.90;;;;;;5037845;28;20172;-60
2022/10/04 07:56:12;;;;;;;4.93;4.53;;;9.20;99.90;;;;;;5038132;28;20029;-60
2022/10/04 07:59:02;;;;;;;5.07;4.18;;;9.40;99.90;;;;;;5039140;28;20022;-60
2022/10/04 08:01:45;;;;;;;5.93;5.30;;;9.50;99.90;;;;;;5036831;28;20048;-61
2022/10/04 08:04:42;;;;;;;6.88;4.72;;;9.60;99.90;;;;;;5039676;28;20107;-60
2022/10/04 08:07:23;;;;;;;7.28;5.20;;;9.70;99.90;;;;;;5026988;28;20112;-60
2022/10/04 08:10:07;;;;;;;6.95;5.10;;;10.00;99.90;;;;;;5035612;28;20176;-61
2022/10/04 08:12:47;;;;;;;6.38;5.13;;;10.10;99.90;;;;;;5033763;28;20044;-60
2022/10/04 08:15:12;;;;;;;6.22;5.20;;;10.10;99.90;;;;;;5036133;28;20040;-60
2022/10/04 08:17:55;;;;;;;6.45;5.45;;;10.10;99.90;;;;;;5041937;28;20021;-60
2022/10/04 08:20:39;;;;;;;6.60;5.90;;;10.20;99.90;;;;;;5038992;28;20079;-61
2022/10/04 08:23:30;;;;;;;6.93;5.03;;;10.30;99.90;;;;;;5038411;28;20036;-60
2022/10/04 08:26:28;;;;;;;4.30;3.90;;;10.30;99.90;;;;;;5040948;28;20030;-59
2022/10/04 08:31:56;;;;;;;5.03;3.67;;;10.60;99.90;;;;;;5040039;28;20037;-61
2022/10/04 08:34:22;;;;;;;15.10;3.67;;;10.60;99.90;;;;;;5039881;28;20115;-61
2022/10/04 08:36:53;;;;;;;5.40;3.22;;;10.70;99.90;;;;;;5038074;28;20113;-61
2022/10/04 08:39:28;;;;;;;9.13;3.80;;;10.70;99.90;;;;;;5038788;28;20565;-62
2022/10/04 08:42:40;;;;;;;4.18;3.55;;;10.70;99.90;;;;;;5035729;28;20556;-60
2022/10/04 08:45:37;;;;;;;3.78;3.28;;;10.80;99.90;;;;;;5023838;28;20434;-60
2022/10/04 08:48:23;;;;;;;3.67;3.38;;;11.00;99.90;;;;;;5037671;28;20033;-60
2022/10/04 08:50:54;;;;;;;3.75;3.35;;;11.10;99.90;;;;;;5035182;28;20044;-60
2022/10/04 08:53:34;;;;;;;6.03;3.30;;;11.30;99.90;;;;;;5036369;28;20055;-61
2022/10/04 08:56:38;;;;;;;5.30;3.53;;;11.30;99.90;;;;;;5037717;28;20021;-60
2022/10/04 08:59:41;;;;;;;5.15;3.60;;;11.50;99.90;;;;;;5033213;28;20105;-61
2022/10/04 09:02:15;;;;;;;6.55;2.92;;;11.80;99.90;;;;;;5041217;28;20033;-60
2022/10/04 09:05:18;;;;;;;4.45;3.60;;;12.00;99.90;;;;;;5033629;28;20028;-61
2022/10/04 09:08:11;;;;;;;6.18;3.67;;;12.10;99.90;;;;;;5037493;28;20037;-60
2022/10/04 09:10:53;;;;;;;12.70;4.20;;;12.20;99.90;;;;;;5038643;28;20041;-60
2022/10/04 09:13:32;;;;;;;5.47;3.75;;;12.30;99.90;;;;;;5021422;28;20779;-61
2022/10/04 09:16:25;;;;;;;4.25;3.60;;;12.50;99.90;;;;;;5037200;28;20033;-59
2022/10/04 09:19:09;;;;;;;4.13;3.72;;;12.70;99.90;;;;;;5019107;28;20049;-61
2022/10/04 09:22:23;;;;;;;4.65;3.58;;;12.90;99.90;;;;;;5016040;28;20021;-61
2022/10/04 09:25:04;;;;;;;3.25;2.95;;;13.10;99.90;;;;;;4994376;28;20030;-61
2022/10/04 09:27:47;;;;;;;8.68;4.03;;;13.10;99.90;;;;;;5014978;28;20022;-61
2022/10/04 09:30:36;;;;;;;5.43;3.65;;;13.10;99.90;;;;;;5034744;28;20029;-61
2022/10/04 09:33:29;;;;;;;3.85;3.55;;;13.00;99.90;;;;;;5034482;28;20022;-61
2022/10/04 09:35:57;;;;;;;4.47;3.30;;;13.00;99.90;;;;;;5039278;28;20087;-59
2022/10/04 09:38:34;;;;;;;5.63;3.15;;;13.00;99.90;;;;;;5039311;28;20028;-60
2022/10/04 09:41:21;;;;;;;3.95;3.38;;;13.00;99.90;;;;;;5036335;28;20025;-60
2022/10/04 09:44:12;;;;;;;4.90;4.25;;;13.20;99.90;;;;;;5036388;28;20029;-60
2022/10/04 09:46:56;;;;;;;;;;;13.30;99.90;;;;;;5039976;28;20033;-61
2022/10/04 09:49:31;;;;;;;5.05;3.60;;;13.30;99.90;;;;;;5032474;28;20300;-61
2022/10/04 09:52:15;;;;;;;4.80;3.30;;;13.40;99.90;;;;;;5042565;28;20167;-61
2022/10/04 09:54:48;;;;;;;4.15;3.58;;;13.40;99.90;;;;;;5036631;28;20151;-61
2022/10/04 09:57:32;;;;;;;5.13;4.10;;;13.40;99.90;;;;;;5034713;28;20033;-60
2022/10/04 10:00:24;;;;;;;4.90;4.35;;;13.50;99.90;;;;;;5036571;28;20048;-61
2022/10/04 10:03:25;;;;;;;5.10;3.78;;;13.80;99.90;;;;;;5039001;28;20547;-62
2022/10/04 10:06:21;;;;;;;3.72;3.33;;;14.20;99.90;;;;;;5034775;28;20478;-61
2022/10/04 10:09:08;;;;;;;4.80;3.83;;;14.70;99.90;;;;;;5035224;28;20538;-62
2022/10/04 10:14:51;;;;;;;6.30;2.88;;;15.40;99.90;;;;;;5035514;28;20028;-62
2022/10/04 10:17:50;;;;;;;5.63;3.42;;;15.60;99.90;;;;;;5037943;28;20422;-62
2022/10/04 10:20:39;;;;;;;3.83;2.85;;;15.80;99.90;;;;;;5036143;28;20021;-62
2022/10/04 10:23:29;;;;;;;5.53;3.20;;;15.90;99.90;;;;;;5039792;28;20039;-61
2022/10/04 10:26:23;;;;;;;3.75;3.00;;;16.00;99.90;;;;;;5035830;28;20080;-61
2022/10/04 10:29:07;;;;;;;4.90;3.50;;;16.10;99.90;;;;;;5040979;28;20789;-61
2022/10/04 10:32:08;;;;;;;5.50;3.65;;;16.20;99.90;;;;;;5034333;28;20541;-61
2022/10/04 10:34:57;;;;;;;4.25;2.80;;;16.00;99.90;;;;;;5037025;28;20400;-60
2022/10/04 10:37:36;;;;;;;4.20;3.38;;;16.00;99.90;;;;;;5037091;28;20056;-61
2022/10/04 10:40:26;;;;;;;4.57;2.95;;;15.90;99.90;;;;;;5033785;28;20036;-60
2022/10/04 10:43:16;;;;;;;3.75;3.22;;;15.90;99.90;;;;;;5034543;28;20117;-61
2022/10/04 10:45:48;;;;;;;4.30;3.15;;;15.90;99.90;;;;;;5040374;28;20577;-61
2022/10/04 10:48:20;;;;;;;4.97;3.67;;;15.80;99.90;;;;;;5035054;28;20045;-60
2022/10/04 10:51:17;;;;;;;4.10;2.90;;;15.70;99.90;;;;;;5035925;28;20130;-61
2022/10/04 10:54:07;;;;;;;4.32;3.28;;;15.80;99.90;;;;;;5034989;28;20029;-61
2022/10/04 10:56:48;;;;;;;4.32;2.90;;;15.70;99.90;;;;;;5035421;28;20038;-61
2022/10/04 10:59:51;;;;;;;6.70;3.50;;;15.70;99.90;;;;;;5033118;28;20022;-62
2022/10/04 11:02:29;;;;;;;4.45;3.50;;;15.60;99.90;;;;;;5035638;28;20060;-61
2022/10/04 11:05:32;;;;;;;4.07;2.97;;;15.70;99.90;;;;;;5034179;28;20022;-60
2022/10/04 11:08:28;;;;;;;3.22;2.30;;;15.80;99.90;;;;;;5034313;28;20030;-61
2022/10/04 11:11:15;;;;;;;3.70;2.47;;;15.80;99.90;;;;;;5031201;28;20038;-61
2022/10/04 11:14:01;;;;;;;4.97;2.72;;;15.80;99.90;;;;;;5035870;28;20033;-61
2022/10/04 11:16:56;;;;;;;3.88;2.15;;;15.80;99.90;;;;;;5035664;28;20029;-62
2022/10/04 11:20:04;;;;;;;3.95;2.60;;;15.80;99.90;;;;;;5023682;28;20091;-61
2022/10/04 11:22:48;;;;;;;5.05;2.60;;;15.70;99.90;;;;;;5012923;28;20079;-62
2022/10/04 11:25:41;;;;;;;6.22;2.22;;;15.60;99.90;;;;;;5035464;28;20061;-61
2022/10/04 11:28:19;;;;;;;4.30;2.05;;;15.60;99.90;;;;;;5033761;28;20395;-61
2022/10/04 11:30:51;;;;;;;4.50;2.30;;;15.60;99.90;;;;;;5043193;28;20579;-62
2022/10/04 11:33:51;;;;;;;4.18;2.45;;;15.60;99.90;;;;;;5033545;28;20038;-61
2022/10/04 11:36:35;;;;;;;3.92;2.00;;;15.70;99.90;;;;;;5034249;28;20022;-61
2022/10/04 11:39:13;;;;;;;4.97;2.28;;;15.70;99.90;;;;;;5037657;28;20043;-61
2022/10/04 11:42:16;;;;;;;2.40;1.63;;;15.70;99.90;;;;;;5035598;28;20041;-60
2022/10/04 11:44:51;;;;;;;6.45;2.38;;;15.90;99.90;;;;;;5035526;28;20081;-61
2022/10/04 11:47:53;;;;;;;4.30;1.90;;;15.90;99.90;;;;;;5037618;28;20025;-60
2022/10/04 11:50:22;;;;;;;;;;;16.00;99.90;;;;;;5035030;28;20106;-61
2022/10/04 11:52:50;;;;;;;4.32;1.40;;;16.00;99.90;;;;;;5037212;28;19909;-61
2022/10/04 11:55:41;;;;;;;2.50;1.80;;;16.10;99.90;;;;;;5037821;28;20044;-62
2022/10/04 11:58:20;;;;;;;3.53;1.60;;;16.20;99.90;;;;;;5036062;28;20033;-61
2022/10/04 12:01:04;;;;;;;3.75;1.40;;;16.30;99.90;;;;;;5035688;28;20024;-61
2022/10/04 12:03:49;;;;;;;4.28;2.00;;;16.40;99.90;;;;;;5010263;28;20029;-61
2022/10/04 12:06:59;;;;;;;3.00;1.60;;;16.40;99.90;;;;;;5040932;28;20649;-60
2022/10/04 12:09:40;;;;;;;6.50;1.55;;;16.40;99.90;;;;;;5010193;28;20037;-62
2022/10/04 12:12:36;;;;;;;5.45;1.77;;;16.40;99.90;;;;;;5018032;28;20014;-61
2022/10/04 12:15:22;;;;;;;4.47;1.40;;;16.40;99.90;;;;;;5019385;28;20365;-61
2022/10/04 12:18:06;;;;;;;2.78;1.98;;;16.40;99.90;;;;;;5018568;28;20132;-61
2022/10/04 12:20:52;;;;;;;4.40;1.98;;;16.60;99.90;;;;;;5022037;28;20037;-61
2022/10/04 12:23:35;;;;;;;5.47;1.88;;;16.70;99.90;;;;;;5017675;28;20037;-61
2022/10/04 12:26:07;;;;;;;3.85;1.70;;;16.70;99.90;;;;;;5016903;28;20033;-61
2022/10/04 12:28:56;;;;;;;6.50;1.50;;;16.80;99.90;;;;;;5022553;28;20515;-62
2022/10/04 12:31:45;;;;;;;3.10;1.30;;;16.80;99.90;;;;;;5017704;28;20037;-61
2022/10/04 12:34:13;;;;;;;2.45;1.42;;;16.90;99.90;;;;;;5017325;28;20037;-61
2022/10/04 12:36:54;;;;;;;5.20;1.20;;;17.00;99.90;;;;;;5017079;28;20478;-61
2022/10/04 12:39:36;;;;;;;2.38;1.23;;;17.00;99.90;;;;;;5019339;28;20030;-60
2022/10/04 12:42:24;;;;;;;7.85;1.88;;;17.20;99.90;;;;;;5016207;28;20523;-61
2022/10/04 12:45:25;;;;;;;4.28;1.20;;;17.20;99.90;;;;;;5019497;28;20033;-60
2022/10/04 12:47:53;;;;;;;4.03;1.43;;;17.10;99.90;;;;;;5010072;28;20037;-61
2022/10/04 12:50:34;;;;;;;2.53;1.30;;;16.80;99.90;;;;;;5023846;28;20112;-61
2022/10/04 12:53:16;;;;;;;3.40;1.00;;;16.70;99.90;;;;;;5019673;28;20370;-61
2022/10/04 12:56:05;;;;;;;6.85;1.30;;;16.70;99.90;;;;;;5018298;28;20561;-61
2022/10/04 12:58:50;;;;;;;2.45;1.25;;;16.60;99.90;;;;;;5019708;28;20082;-61
2022/10/04 13:01:39;;;;;;;6.20;1.63;;;16.50;99.90;;;;;;5016588;28;20021;-60
2022/10/04 13:04:11;;;;;;;2.13;1.33;;;16.50;99.90;;;;;;5016543;28;20021;-61
2022/10/04 13:06:47;;;;;;;5.55;1.30;;;16.50;99.90;;;;;;5020496;28;20017;-61
2022/10/04 13:09:35;;;;;;;1.80;1.15;;;16.50;99.90;;;;;;5014842;28;20030;-60
2022/10/04 13:12:13;;;;;;;2.25;1.20;;;16.50;99.90;;;;;;5015616;28;20018;-61
2022/10/04 13:15:13;;;;;;;5.65;1.17;;;16.50;99.90;;;;;;5018307;28;20030;-59
2022/10/04 13:17:48;;;;;;;3.37;1.17;;;16.50;99.90;;;;;;5011621;28;20029;-60
2022/10/04 13:20:33;;;;;;;1.98;1.15;;;16.50;99.90;;;;;;5014920;28;20712;-60
2022/10/04 13:23:25;;;;;;;4.55;1.17;;;16.50;99.90;;;;;;5019835;28;20033;-61
2022/10/04 13:26:04;;;;;;;3.22;1.40;;;16.40;99.90;;;;;;5019227;28;20034;-61
2022/10/04 13:28:33;;;;;;;1.65;1.00;;;16.40;99.90;;;;;;5015446;28;20033;-61
2022/10/04 13:31:08;;;;;;;4.75;1.30;;;16.40;99.90;;;;;;5018777;28;20025;-60
2022/10/04 13:34:12;;;;;;;3.83;1.33;;;16.40;99.90;;;;;;5019357;28;20038;-60
2022/10/04 13:36:53;;;;;;;3.58;1.30;;;16.40;99.90;;;;;;5009665;28;20060;-60
2022/10/04 13:39:44;;;;;;;3.60;1.10;;;16.40;99.90;;;;;;5016130;28;20041;-60
2022/10/04 13:42:19;;;;;;;3.95;1.25;;;16.40;99.90;;;;;;5022745;28;20026;-61
2022/10/04 13:45:16;;;;;;;2.90;1.20;;;16.40;99.90;;;;;;5016496;28;20065;-60
2022/10/04 13:47:51;;;;;;;1.45;1.00;;;16.40;99.90;;;;;;5018266;28;20299;-61
2022/10/04 13:50:30;;;;;;;2.85;1.30;;;16.40;99.90;;;;;;5021309;28;20037;-60
2022/10/04 13:56:39;;;;;;;1.45;1.02;;;16.50;99.90;;;;;;5008843;28;20072;-61
2022/10/04 13:59:39;;;;;;;2.58;1.15;;;16.50;99.90;;;;;;5016368;28;20390;-60
2022/10/04 14:02:40;;;;;;;3.95;1.42;;;16.50;99.90;;;;;;5015878;28;20390;-60
2022/10/04 14:05:19;;;;;;;2.72;1.15;;;16.50;99.90;;;;;;5006463;28;20072;-61
2022/10/04 14:08:07;;;;;;;1.88;1.15;;;16.50;99.90;;;;;;5015275;28;20530;-61